createdAt,value
2018-04-10T00:00:57.977Z,97.50
2018-04-10T00:03:25.543Z,96.90
2018-04-10T00:05:53.157Z,96.80
2018-04-10T00:08:21.545Z,96.70
2018-04-10T00:10:49.128Z,96.70
2018-04-10T00:13:16.692Z,96.70
2018-04-10T00:15:44.249Z,96.60
2018-04-10T00:18:11.814Z,96.70
2018-04-10T00:20:39.358Z,96.70
2018-04-10T00:23:06.925Z,96.80
2018-04-10T00:25:34.466Z,96.90
2018-04-10T00:28:02.031Z,96.90
2018-04-10T00:30:29.575Z,97.00
2018-04-10T00:32:57.921Z,97.20
2018-04-10T00:35:25.468Z,97.20
2018-04-10T00:37:53.056Z,97.60
2018-04-10T00:40:20.595Z,97.80
2018-04-10T00:42:48.157Z,98.40
2018-04-10T00:45:15.713Z,98.80
2018-04-10T00:47:43.274Z,98.90
2018-04-10T00:50:10.821Z,98.70
2018-04-10T00:52:38.393Z,98.20
2018-04-10T00:55:05.938Z,97.80
2018-04-10T00:57:33.481Z,97.80
2018-04-10T01:00:01.056Z,98.10
2018-04-10T01:02:28.602Z,98.10
2018-04-10T01:04:56.164Z,98.10
2018-04-10T01:07:23.697Z,98.30
2018-04-10T01:09:51.267Z,98.50
2018-04-10T01:12:18.825Z,98.60
2018-04-10T01:14:46.399Z,98.60
2018-04-10T01:17:13.933Z,99.20
2018-04-10T01:19:41.502Z,99.50
2018-04-10T01:22:09.041Z,99.50
2018-04-10T01:24:37.383Z,99.80
2018-04-10T01:27:04.924Z,99.80
2018-04-10T01:29:32.487Z,99.90
2018-04-10T01:32:00.035Z,99.90
2018-04-10T01:34:27.601Z,99.90
2018-04-10T01:36:55.145Z,99.90
2018-04-10T01:39:22.718Z,99.90
2018-04-10T01:41:50.264Z,99.90
2018-04-10T01:44:17.822Z,99.90
2018-04-10T01:46:45.367Z,99.90
2018-04-10T01:49:12.935Z,99.90
2018-04-10T01:51:40.470Z,99.90
2018-04-10T01:54:08.804Z,99.90
2018-04-10T01:56:36.350Z,99.90
2018-04-10T01:59:03.909Z,99.90
2018-04-10T02:01:31.455Z,99.90
2018-04-10T02:03:59.024Z,99.90
2018-04-10T02:06:26.574Z,99.90
2018-04-10T02:08:54.148Z,99.90
2018-04-10T02:11:21.680Z,99.90
2018-04-10T02:13:49.242Z,99.90
2018-04-10T02:16:16.823Z,99.90
2018-04-10T02:18:44.399Z,99.90
2018-04-10T02:21:11.938Z,99.90
2018-04-10T02:23:39.521Z,99.90
2018-04-10T02:26:07.612Z,99.90
2018-04-10T02:28:35.152Z,99.90
2018-04-10T02:31:02.738Z,99.90
2018-04-10T02:33:31.106Z,99.90
2018-04-10T02:35:59.529Z,99.90
2018-04-10T02:38:27.162Z,99.90
2018-04-10T02:40:54.828Z,99.90
2018-04-10T02:43:22.423Z,99.90
2018-04-10T02:45:49.971Z,99.90
2018-04-10T02:48:17.550Z,99.90
2018-04-10T02:50:45.098Z,99.90
2018-04-10T02:53:12.675Z,99.90
2018-04-10T02:55:40.210Z,99.90
2018-04-10T02:58:07.885Z,99.90
2018-04-10T03:00:35.458Z,99.90
2018-04-10T03:03:02.999Z,99.90
2018-04-10T03:05:30.571Z,99.90
2018-04-10T03:07:58.103Z,99.90
2018-04-10T03:10:26.446Z,99.90
2018-04-10T03:12:53.987Z,99.90
2018-04-10T03:15:21.594Z,99.90
2018-04-10T03:17:49.907Z,99.90
2018-04-10T03:20:17.460Z,99.90
2018-04-10T03:22:45.056Z,99.90
2018-04-10T03:25:12.620Z,99.90
2018-04-10T03:27:40.195Z,99.50
2018-04-10T03:30:08.493Z,99.90
2018-04-10T03:32:36.075Z,99.90
2018-04-10T03:35:03.624Z,99.90
2018-04-10T03:37:31.226Z,99.90
2018-04-10T03:39:58.780Z,99.90
2018-04-10T03:42:26.317Z,99.90
2018-04-10T03:44:53.918Z,99.90
2018-04-10T03:47:22.226Z,99.90
2018-04-10T03:49:49.822Z,99.90
2018-04-10T03:52:17.364Z,99.90
2018-04-10T03:54:44.899Z,99.90
2018-04-10T03:57:13.234Z,99.90
2018-04-10T03:59:40.774Z,99.90
2018-04-10T04:02:08.330Z,99.90
2018-04-10T04:04:35.875Z,99.90
2018-04-10T04:07:03.452Z,99.90
2018-04-10T04:09:31.005Z,99.90
2018-04-10T04:11:58.593Z,99.90
2018-04-10T04:14:26.137Z,99.90
2018-04-10T04:17:05.605Z,99.90
2018-04-10T04:19:46.503Z,99.90
2018-04-10T04:22:27.770Z,99.90
2018-04-10T04:24:56.075Z,99.90
2018-04-10T04:27:23.636Z,99.90
2018-04-10T04:29:51.173Z,99.90
2018-04-10T04:32:19.498Z,99.90
2018-04-10T04:34:47.079Z,99.90
2018-04-10T04:37:14.620Z,99.90
2018-04-10T04:39:42.186Z,99.90
2018-04-10T04:42:09.739Z,99.90
2018-04-10T04:44:37.302Z,99.90
2018-04-10T04:47:04.921Z,99.90
2018-04-10T04:49:32.585Z,99.90
2018-04-10T04:52:00.159Z,99.90
2018-04-10T04:54:27.733Z,99.90
2018-04-10T04:56:55.288Z,99.90
2018-04-10T04:59:22.855Z,99.90
2018-04-10T05:01:50.403Z,99.90
2018-04-10T05:04:17.967Z,99.90
2018-04-10T05:06:45.510Z,99.90
2018-04-10T05:09:13.095Z,99.90
2018-04-10T05:11:40.639Z,99.90
2018-04-10T05:14:08.204Z,99.90
2018-04-10T05:16:35.760Z,99.90
2018-04-10T05:19:03.359Z,99.90
2018-04-10T05:21:32.410Z,99.90
2018-04-10T05:23:59.967Z,99.90
2018-04-10T05:26:27.514Z,99.90
2018-04-10T05:28:55.047Z,99.90
2018-04-10T05:31:24.120Z,99.90
2018-04-10T05:33:51.658Z,99.90
2018-04-10T05:36:19.231Z,99.90
2018-04-10T05:38:46.788Z,99.90
2018-04-10T05:41:14.369Z,99.90
2018-04-10T05:43:41.923Z,99.90
2018-04-10T05:46:10.254Z,99.90
2018-04-10T05:48:37.808Z,99.90
2018-04-10T05:51:05.381Z,99.90
2018-04-10T05:53:32.915Z,99.90
2018-04-10T05:56:01.255Z,99.90
2018-04-10T05:58:28.789Z,99.90
2018-04-10T06:00:56.358Z,99.90
2018-04-10T06:03:23.907Z,99.90
2018-04-10T06:05:51.469Z,99.90
2018-04-10T06:08:19.010Z,99.90
2018-04-10T06:10:46.600Z,99.90
2018-04-10T06:13:14.152Z,99.90
2018-04-10T06:15:41.803Z,99.90
2018-04-10T06:18:09.350Z,99.90
2018-04-10T06:20:37.074Z,99.90
2018-04-10T06:23:05.471Z,99.80
2018-04-10T06:25:33.064Z,99.80
2018-04-10T06:28:00.606Z,99.40
2018-04-10T06:30:28.178Z,99.40
2018-04-10T06:32:55.739Z,99.00
2018-04-10T06:35:23.299Z,98.80
2018-04-10T06:37:50.872Z,98.40
2018-04-10T06:40:18.421Z,98.20
2018-04-10T06:42:45.989Z,97.90
2018-04-10T06:45:13.546Z,97.70
2018-04-10T06:47:41.161Z,97.40
2018-04-10T06:50:09.453Z,96.70
2018-04-10T06:52:37.031Z,96.90
2018-04-10T06:55:04.580Z,96.60
2018-04-10T06:57:32.142Z,96.30
2018-04-10T06:59:59.701Z,96.00
2018-04-10T07:02:27.285Z,95.80
2018-04-10T07:04:54.843Z,95.70
2018-04-10T07:07:22.417Z,95.70
2018-04-10T07:09:49.975Z,95.30
2018-04-10T07:12:17.548Z,95.00
2018-04-10T07:14:45.098Z,95.30
2018-04-10T07:17:12.667Z,95.30
2018-04-10T07:19:40.212Z,95.10
2018-04-10T07:22:07.785Z,95.10
2018-04-10T07:24:35.331Z,94.60
2018-04-10T07:27:02.900Z,94.30
2018-04-10T07:29:30.452Z,94.00
2018-04-10T07:31:58.215Z,94.00
2018-04-10T07:34:25.766Z,93.80
2018-04-10T07:36:53.305Z,93.50
2018-04-10T07:39:20.880Z,93.20
2018-04-10T07:41:48.431Z,93.10
2018-04-10T07:44:16.003Z,93.00
2018-04-10T07:46:43.555Z,92.80
2018-04-10T07:49:11.116Z,92.70
2018-04-10T07:51:38.674Z,92.60
2018-04-10T07:54:06.249Z,92.20
2018-04-10T07:56:34.568Z,92.00
2018-04-10T07:59:02.905Z,91.80
2018-04-10T08:01:30.461Z,91.80
2018-04-10T08:03:58.044Z,91.60
2018-04-10T08:06:25.589Z,91.40
2018-04-10T08:08:53.148Z,90.80
2018-04-10T08:11:20.687Z,90.80
2018-04-10T08:13:48.257Z,90.60
2018-04-10T08:16:15.804Z,90.70
2018-04-10T08:18:43.370Z,90.90
2018-04-10T08:21:10.920Z,90.90
2018-04-10T08:23:38.489Z,90.80
2018-04-10T08:26:06.040Z,90.30
2018-04-10T08:28:33.583Z,89.60
2018-04-10T08:31:01.147Z,87.80
2018-04-10T08:33:28.707Z,86.90
2018-04-10T08:35:56.303Z,87.00
2018-04-10T08:38:23.830Z,85.90
2018-04-10T08:40:51.416Z,85.70
2018-04-10T08:43:18.961Z,85.60
2018-04-10T08:45:46.549Z,85.20
2018-04-10T08:48:14.105Z,84.20
2018-04-10T08:50:43.196Z,82.60
2018-04-10T08:53:10.768Z,82.50
2018-04-10T08:55:38.350Z,82.70
2018-04-10T08:58:06.666Z,81.60
2018-04-10T09:00:34.260Z,81.60
2018-04-10T09:03:01.820Z,81.30
2018-04-10T09:05:29.404Z,79.70
2018-04-10T09:07:57.733Z,79.20
2018-04-10T09:10:25.303Z,79.00
2018-04-10T09:12:52.849Z,75.80
2018-04-10T09:15:20.423Z,75.10
2018-04-10T09:17:47.967Z,74.90
2018-04-10T09:20:15.536Z,75.00
2018-04-10T09:22:43.076Z,76.00
2018-04-10T09:25:10.629Z,76.80
2018-04-10T09:27:38.193Z,76.30
2018-04-10T09:30:05.731Z,76.10
2018-04-10T09:32:33.300Z,75.70
2018-04-10T09:35:00.832Z,75.70
2018-04-10T09:37:29.152Z,74.10
2018-04-10T09:39:56.682Z,74.00
2018-04-10T09:42:25.016Z,73.20
2018-04-10T09:44:52.566Z,73.20
2018-04-10T09:47:20.129Z,73.00
2018-04-10T09:49:47.657Z,72.50
2018-04-10T09:52:15.214Z,72.60
2018-04-10T09:54:42.763Z,72.10
2018-04-10T09:57:10.330Z,71.40
2018-04-10T09:59:37.885Z,71.50
2018-04-10T10:02:05.461Z,71.00
2018-04-10T10:04:33.014Z,70.20
2018-04-10T10:07:00.649Z,68.80
2018-04-10T10:09:28.214Z,68.50
2018-04-10T10:11:56.541Z,68.60
2018-04-10T10:14:24.091Z,68.70
2018-04-10T10:16:51.655Z,68.50
2018-04-10T10:19:19.190Z,69.70
2018-04-10T10:21:46.760Z,69.60
2018-04-10T10:24:14.309Z,70.00
2018-04-10T10:26:41.848Z,69.20
2018-04-10T10:29:10.175Z,69.90
2018-04-10T10:31:37.720Z,69.90
2018-04-10T10:34:05.296Z,70.00
2018-04-10T10:36:32.840Z,69.20
2018-04-10T10:39:00.595Z,68.50
2018-04-10T10:41:28.139Z,68.20
2018-04-10T10:43:55.713Z,68.00
2018-04-10T10:46:23.245Z,67.90
2018-04-10T10:48:51.586Z,67.80
2018-04-10T10:51:19.132Z,67.90
2018-04-10T10:53:46.697Z,68.20
2018-04-10T10:56:14.248Z,67.10
2018-04-10T10:58:41.817Z,67.30
2018-04-10T11:01:09.358Z,65.80
2018-04-10T11:03:36.925Z,64.90
2018-04-10T11:06:04.471Z,65.20
2018-04-10T11:08:32.038Z,65.50
2018-04-10T11:10:59.574Z,66.00
2018-04-10T11:13:27.142Z,63.90
2018-04-10T11:15:54.689Z,64.70
2018-04-10T11:18:22.256Z,65.30
2018-04-10T11:20:49.803Z,64.70
2018-04-10T11:23:17.393Z,64.10
2018-04-10T11:25:44.930Z,64.70
2018-04-10T11:28:12.479Z,63.10
2018-04-10T11:30:40.051Z,62.90
2018-04-10T11:33:07.604Z,62.70
2018-04-10T11:35:35.175Z,62.80
2018-04-10T11:38:02.721Z,62.30
2018-04-10T11:40:30.289Z,63.10
2018-04-10T11:42:57.823Z,61.90
2018-04-10T11:45:26.159Z,61.80
2018-04-10T11:47:53.698Z,61.80
2018-04-10T11:50:21.257Z,60.40
2018-04-10T11:52:48.798Z,60.60
2018-04-10T11:55:16.378Z,60.60
2018-04-10T11:57:43.974Z,60.10
2018-04-10T12:00:11.557Z,59.40
2018-04-10T12:02:39.875Z,59.40
2018-04-10T12:05:07.452Z,59.30
2018-04-10T12:07:35.008Z,59.50
2018-04-10T12:10:02.574Z,59.50
2018-04-10T12:12:30.131Z,59.70
2018-04-10T12:14:57.706Z,61.00
2018-04-10T12:17:25.256Z,60.30
2018-04-10T12:19:52.802Z,60.30
2018-04-10T12:22:20.363Z,59.60
2018-04-10T12:24:47.908Z,59.20
2018-04-10T12:27:15.479Z,59.80
2018-04-10T12:29:43.039Z,58.90
2018-04-10T12:32:10.614Z,58.60
2018-04-10T12:34:38.176Z,58.30
2018-04-10T12:37:05.750Z,58.40
2018-04-10T12:39:33.298Z,57.60
2018-04-10T12:42:00.877Z,56.60
2018-04-10T12:44:28.429Z,56.70
2018-04-10T12:46:55.989Z,55.90
2018-04-10T12:49:23.540Z,56.20
2018-04-10T12:51:51.107Z,56.20
2018-04-10T12:54:18.654Z,55.90
2018-04-10T12:56:46.237Z,56.30
2018-04-10T12:59:13.793Z,56.40
2018-04-10T13:01:42.135Z,55.90
2018-04-10T13:04:09.681Z,55.90
2018-04-10T13:06:37.290Z,55.60
2018-04-10T13:09:05.691Z,55.30
2018-04-10T13:11:34.032Z,54.90
2018-04-10T13:14:01.597Z,54.80
2018-04-10T13:16:29.160Z,54.30
2018-04-10T13:18:56.723Z,54.20
2018-04-10T13:21:25.780Z,53.40
2018-04-10T13:23:53.355Z,53.40
2018-04-10T13:26:20.902Z,53.80
2018-04-10T13:28:48.479Z,53.40
2018-04-10T13:31:16.023Z,53.20
2018-04-10T13:33:43.585Z,52.90
2018-04-10T13:36:11.123Z,53.20
2018-04-10T13:38:38.680Z,53.30
2018-04-10T13:41:06.235Z,52.50
2018-04-10T13:43:33.800Z,52.30
2018-04-10T13:46:01.346Z,52.60
2018-04-10T13:48:28.924Z,52.90
2018-04-10T13:50:56.510Z,52.20
2018-04-10T13:53:24.081Z,52.40
2018-04-10T13:55:51.679Z,52.80
2018-04-10T13:58:20.020Z,52.80
2018-04-10T14:00:47.553Z,52.80
2018-04-10T14:06:18.065Z,54.30
2018-04-10T14:08:45.637Z,54.60
2018-04-10T14:11:13.182Z,55.30
2018-04-10T14:13:40.779Z,55.60
2018-04-10T14:16:09.087Z,56.00
2018-04-10T14:18:36.669Z,56.00
2018-04-10T14:21:04.246Z,56.50
2018-04-10T14:23:31.822Z,56.50
2018-04-10T14:26:00.154Z,56.50
2018-04-10T14:28:28.774Z,56.40
2018-04-10T14:30:56.332Z,56.60
2018-04-10T14:33:23.879Z,56.30
2018-04-10T14:35:51.462Z,56.30
2018-04-10T14:38:19.005Z,56.70
2018-04-10T14:40:46.587Z,56.70
2018-04-10T14:43:14.907Z,56.20
2018-04-10T14:45:42.571Z,56.20
2018-04-10T14:48:10.247Z,56.00
2018-04-10T14:50:37.836Z,56.60
2018-04-10T14:53:05.395Z,56.70
2018-04-10T14:55:32.976Z,57.40
2018-04-10T14:58:01.292Z,58.40
2018-04-10T15:00:28.901Z,58.40
2018-04-10T15:02:56.498Z,58.80
2018-04-10T15:05:24.097Z,58.80
2018-04-10T15:07:51.673Z,59.10
2018-04-10T15:10:19.259Z,59.60
2018-04-10T15:12:46.827Z,61.20
2018-04-10T15:15:14.406Z,63.60
2018-04-10T15:17:41.958Z,66.50
2018-04-10T15:20:09.534Z,67.00
2018-04-10T15:22:37.084Z,69.80
2018-04-10T15:25:04.669Z,71.50
2018-04-10T15:27:32.226Z,71.90
2018-04-10T15:29:59.799Z,71.80
2018-04-10T15:32:27.355Z,72.40
2018-04-10T15:34:54.918Z,71.50
2018-04-10T15:37:22.459Z,71.40
2018-04-10T15:39:50.018Z,69.50
2018-04-10T15:42:17.563Z,68.40
2018-04-10T15:44:45.123Z,69.40
2018-04-10T15:47:12.681Z,71.30
2018-04-10T15:49:40.228Z,71.90
2018-04-10T15:52:07.797Z,73.40
2018-04-10T15:54:35.342Z,73.60
2018-04-10T15:57:02.912Z,73.70
2018-04-10T15:59:30.452Z,73.00
2018-04-10T16:01:58.026Z,73.30
2018-04-10T16:04:25.562Z,73.70
2018-04-10T16:06:53.914Z,74.20
2018-04-10T16:09:21.453Z,74.20
2018-04-10T16:11:49.018Z,74.10
2018-04-10T16:14:16.562Z,75.60
2018-04-10T16:16:44.126Z,76.90
2018-04-10T16:19:11.687Z,79.40
2018-04-10T16:21:39.263Z,87.50
2018-04-10T16:24:06.814Z,92.40
2018-04-10T16:26:34.369Z,95.50
2018-04-10T16:29:01.892Z,97.30
2018-04-10T16:31:29.534Z,99.90
2018-04-10T16:33:57.210Z,99.90
2018-04-10T16:36:24.844Z,99.90
2018-04-10T16:38:52.438Z,99.90
2018-04-10T16:41:19.995Z,99.90
2018-04-10T16:43:47.559Z,99.90
2018-04-10T16:46:15.103Z,99.90
2018-04-10T16:48:43.431Z,99.90
2018-04-10T16:51:10.984Z,99.90
2018-04-10T16:53:38.551Z,99.90
2018-04-10T16:56:06.097Z,99.90
2018-04-10T16:58:33.653Z,99.90
2018-04-10T17:01:01.180Z,99.90
2018-04-10T17:03:29.503Z,99.90
2018-04-10T17:05:57.043Z,99.90
2018-04-10T17:08:24.610Z,99.90
2018-04-10T17:10:52.195Z,99.90
2018-04-10T17:13:19.772Z,99.90
2018-04-10T17:15:47.325Z,99.90
2018-04-10T17:18:14.894Z,99.90
2018-04-10T17:20:42.438Z,99.90
2018-04-10T17:23:09.999Z,99.90
2018-04-10T17:25:37.533Z,99.90
2018-04-10T17:28:05.104Z,99.90
2018-04-10T17:30:32.647Z,99.90
2018-04-10T17:33:00.186Z,99.90
2018-04-10T17:35:27.745Z,99.90
2018-04-10T17:37:55.283Z,99.90
2018-04-10T17:40:23.622Z,99.90
2018-04-10T17:42:51.179Z,99.90
2018-04-10T17:45:18.749Z,99.90
2018-04-10T17:47:46.292Z,99.90
2018-04-10T17:50:14.038Z,99.90
2018-04-10T17:52:41.575Z,99.90
2018-04-10T17:55:09.154Z,99.90
2018-04-10T17:57:36.698Z,99.90
2018-04-10T18:00:04.271Z,99.90
2018-04-10T18:02:31.818Z,99.90
2018-04-10T18:04:59.395Z,99.90
2018-04-10T18:07:26.934Z,99.90
2018-04-10T18:09:54.499Z,99.90
2018-04-10T18:12:22.082Z,99.90
2018-04-10T18:14:49.740Z,99.90
2018-04-10T18:17:17.316Z,99.90
2018-04-10T18:19:44.901Z,99.90
2018-04-10T18:22:12.442Z,99.90
2018-04-10T18:24:40.001Z,99.90
2018-04-10T18:27:07.549Z,99.90
2018-04-10T18:29:35.119Z,99.90
2018-04-10T18:32:02.667Z,99.90
2018-04-10T18:34:30.247Z,99.90
2018-04-10T18:36:57.787Z,99.90
2018-04-10T18:39:25.356Z,99.90
2018-04-10T18:41:52.919Z,99.90
2018-04-10T18:44:20.454Z,99.90
2018-04-10T18:46:48.044Z,99.90
2018-04-10T18:49:15.596Z,99.90
2018-04-10T18:51:43.166Z,99.90
2018-04-10T18:54:10.692Z,99.90
2018-04-10T18:56:38.255Z,99.90
2018-04-10T18:59:05.800Z,99.90
2018-04-10T19:01:33.357Z,99.90
2018-04-10T19:04:00.910Z,99.90
2018-04-10T19:06:28.499Z,99.90
2018-04-10T19:08:56.824Z,99.90
2018-04-10T19:11:25.149Z,99.90
2018-04-10T19:13:52.682Z,99.90
2018-04-10T19:16:20.242Z,99.90
2018-04-10T19:18:47.791Z,99.90
2018-04-10T19:21:15.371Z,99.90
2018-04-10T19:23:42.921Z,99.90
2018-04-10T19:26:10.491Z,99.90
2018-04-10T19:28:38.057Z,99.90
2018-04-10T19:31:05.689Z,99.90
2018-04-10T19:33:33.314Z,99.90
2018-04-10T19:36:00.991Z,99.90
2018-04-10T19:38:29.378Z,99.90
2018-04-10T19:40:57.690Z,99.90
2018-04-10T19:43:25.259Z,99.90
2018-04-10T19:45:52.799Z,99.90
2018-04-10T19:48:20.368Z,99.90
2018-04-10T19:50:47.906Z,99.90
2018-04-10T19:53:15.475Z,99.90
2018-04-10T19:55:43.040Z,99.90
2018-04-10T19:58:10.654Z,99.90
2018-04-10T20:00:38.152Z,99.90
2018-04-10T20:03:05.743Z,99.90
2018-04-10T20:05:33.316Z,99.90
2018-04-10T20:08:00.887Z,99.90
2018-04-10T20:10:28.432Z,99.90
2018-04-10T20:12:56.017Z,99.90
2018-04-10T20:15:23.564Z,99.90
2018-04-10T20:17:51.131Z,99.90
2018-04-10T20:20:18.685Z,99.90
2018-04-10T20:22:46.243Z,99.90
2018-04-10T20:25:13.804Z,99.90
2018-04-10T20:27:41.379Z,99.90
2018-04-10T20:30:08.936Z,99.90
2018-04-10T20:32:37.371Z,99.90
2018-04-10T20:35:04.918Z,99.90
2018-04-10T20:37:32.480Z,99.90
2018-04-10T20:40:00.016Z,99.90
2018-04-10T20:42:28.333Z,99.90
2018-04-10T20:44:55.985Z,99.90
2018-04-10T20:47:23.526Z,99.90
2018-04-10T20:49:51.089Z,99.90
2018-04-10T20:52:19.566Z,99.90
2018-04-10T20:54:47.130Z,99.90
2018-04-10T20:57:14.682Z,99.90
2018-04-10T20:59:42.264Z,99.90
2018-04-10T21:02:09.803Z,99.90
2018-04-10T21:04:37.376Z,99.90
2018-04-10T21:07:04.912Z,99.90
2018-04-10T21:09:33.240Z,99.90
2018-04-10T21:12:00.798Z,99.90
2018-04-10T21:14:29.148Z,99.90
2018-04-10T21:16:56.694Z,99.90
2018-04-10T21:19:24.265Z,99.90
2018-04-10T21:21:51.805Z,99.90
2018-04-10T21:24:20.144Z,99.90
2018-04-10T21:26:47.680Z,99.90
2018-04-10T21:29:15.257Z,99.90
2018-04-10T21:31:42.810Z,99.90
2018-04-10T21:34:10.385Z,99.90
2018-04-10T21:36:37.942Z,99.90
2018-04-10T21:39:05.539Z,99.90
2018-04-10T21:41:33.850Z,99.90
2018-04-10T21:44:01.435Z,99.90
2018-04-10T21:46:28.975Z,99.90
2018-04-10T21:48:56.509Z,99.90
2018-04-10T21:51:24.082Z,99.90
2018-04-10T21:53:51.631Z,99.90
2018-04-10T21:56:19.201Z,99.90
2018-04-10T21:58:46.734Z,99.90
2018-04-10T22:01:14.297Z,99.90
2018-04-10T22:03:42.604Z,99.90
2018-04-10T22:06:10.165Z,99.90
2018-04-10T22:08:37.712Z,99.90
2018-04-10T22:11:05.265Z,99.90
2018-04-10T22:13:32.800Z,99.90
2018-04-10T22:16:01.140Z,99.90
2018-04-10T22:18:28.685Z,99.90
2018-04-10T22:20:56.259Z,99.90
2018-04-10T22:23:23.806Z,99.90
2018-04-10T22:25:52.366Z,99.90
2018-04-10T22:28:19.907Z,99.90
2018-04-10T22:30:48.226Z,99.90
2018-04-10T22:33:15.732Z,99.90
2018-04-10T22:35:43.290Z,99.90
2018-04-10T22:38:10.833Z,99.90
2018-04-10T22:40:38.384Z,99.90
2018-04-10T22:43:06.689Z,99.90
2018-04-10T22:45:34.246Z,99.90
2018-04-10T22:48:01.794Z,99.90
2018-04-10T22:50:29.355Z,99.90
2018-04-10T22:52:56.901Z,99.90
2018-04-10T22:55:25.242Z,99.90
2018-04-10T22:57:52.774Z,99.90
2018-04-10T23:03:19.151Z,99.90
2018-04-10T23:05:46.708Z,99.90
2018-04-10T23:08:14.255Z,99.90
2018-04-10T23:10:41.818Z,99.90
2018-04-10T23:13:09.359Z,99.90
2018-04-10T23:15:36.901Z,99.90
2018-04-10T23:18:05.243Z,99.90
2018-04-10T23:20:32.779Z,99.90
2018-04-10T23:23:00.343Z,99.90
2018-04-10T23:25:27.888Z,99.90
2018-04-10T23:27:55.441Z,99.90
2018-04-10T23:30:22.987Z,99.90
2018-04-10T23:32:51.323Z,99.90
2018-04-10T23:35:18.864Z,99.90
2018-04-10T23:37:46.427Z,99.90
2018-04-10T23:40:13.999Z,99.90
2018-04-10T23:42:41.582Z,99.90
2018-04-10T23:45:09.131Z,99.90
2018-04-10T23:47:36.691Z,99.90
2018-04-10T23:50:04.993Z,99.90
2018-04-10T23:52:32.553Z,99.90
2018-04-10T23:55:00.098Z,99.90
2018-04-10T23:57:27.650Z,99.90
2018-04-10T23:59:55.189Z,99.90
